sensor_id;sensor_type;location;lat;lon;timestamp;P1;durP1;ratioP1;P2;durP2;ratioP2
15342;SDS011;7771;48.478;8.936;2022-09-03T00:00:49;4.37;;;3.28;;
15342;SDS011;7771;48.478;8.936;2022-09-03T00:03:32;5.18;;;3.37;;
15342;SDS011;7771;48.478;8.936;2022-09-03T00:08:39;3.85;;;3.55;;
15342;SDS011;7771;48.478;8.936;2022-09-03T00:11:14;3.45;;;3.15;;
15342;SDS011;7771;48.478;8.936;2022-09-03T00:13:41;3.90;;;3.45;;
15342;SDS011;7771;48.478;8.936;2022-09-03T00:16:08;4.65;;;3.50;;
15342;SDS011;7771;48.478;8.936;2022-09-03T00:18:35;4.00;;;3.60;;
15342;SDS011;7771;48.478;8.936;2022-09-03T00:21:03;5.28;;;3.45;;
15342;SDS011;7771;48.478;8.936;2022-09-03T00:23:30;3.97;;;3.58;;
15342;SDS011;7771;48.478;8.936;2022-09-03T00:26:02;4.18;;;3.83;;
15342;SDS011;7771;48.478;8.936;2022-09-03T00:28:28;4.10;;;3.55;;
15342;SDS011;7771;48.478;8.936;2022-09-03T00:31:00;4.15;;;3.62;;
15342;SDS011;7771;48.478;8.936;2022-09-03T00:33:24;5.50;;;3.40;;
15342;SDS011;7771;48.478;8.936;2022-09-03T00:36:01;5.72;;;3.50;;
15342;SDS011;7771;48.478;8.936;2022-09-03T00:38:19;4.32;;;3.42;;
15342;SDS011;7771;48.478;8.936;2022-09-03T00:40:57;4.40;;;3.12;;
15342;SDS011;7771;48.478;8.936;2022-09-03T00:43:41;3.22;;;2.85;;
15342;SDS011;7771;48.478;8.936;2022-09-03T00:46:13;3.87;;;2.90;;
15342;SDS011;7771;48.478;8.936;2022-09-03T00:48:53;4.25;;;3.25;;
15342;SDS011;7771;48.478;8.936;2022-09-03T00:51:30;4.15;;;3.05;;
15342;SDS011;7771;48.478;8.936;2022-09-03T00:54:00;5.82;;;3.12;;
15342;SDS011;7771;48.478;8.936;2022-09-03T00:56:32;5.70;;;3.17;;
15342;SDS011;7771;48.478;8.936;2022-09-03T00:59:03;3.45;;;3.10;;
15342;SDS011;7771;48.478;8.936;2022-09-03T01:01:40;3.75;;;3.35;;
15342;SDS011;7771;48.478;8.936;2022-09-03T01:06:49;3.20;;;2.90;;
15342;SDS011;7771;48.478;8.936;2022-09-03T01:09:21;4.62;;;3.55;;
15342;SDS011;7771;48.478;8.936;2022-09-03T01:11:55;3.85;;;3.40;;
15342;SDS011;7771;48.478;8.936;2022-09-03T01:14:25;4.47;;;3.60;;
15342;SDS011;7771;48.478;8.936;2022-09-03T01:16:55;5.45;;;3.65;;
15342;SDS011;7771;48.478;8.936;2022-09-03T01:19:42;5.43;;;3.83;;
15342;SDS011;7771;48.478;8.936;2022-09-03T01:22:24;5.28;;;3.35;;
15342;SDS011;7771;48.478;8.936;2022-09-03T01:25:11;3.80;;;3.50;;
15342;SDS011;7771;48.478;8.936;2022-09-03T01:27:43;5.43;;;3.80;;
15342;SDS011;7771;48.478;8.936;2022-09-03T01:30:23;3.97;;;3.58;;
15342;SDS011;7771;48.478;8.936;2022-09-03T01:32:53;4.60;;;3.35;;
15342;SDS011;7771;48.478;8.936;2022-09-03T01:35:26;4.05;;;3.33;;
15342;SDS011;7771;48.478;8.936;2022-09-03T01:37:57;4.25;;;3.83;;
15342;SDS011;7771;48.478;8.936;2022-09-03T01:40:26;3.83;;;3.53;;
15342;SDS011;7771;48.478;8.936;2022-09-03T01:43:02;4.05;;;3.42;;
15342;SDS011;7771;48.478;8.936;2022-09-03T01:50:57;4.53;;;3.58;;
15342;SDS011;7771;48.478;8.936;2022-09-03T01:59:19;3.72;;;3.33;;
15342;SDS011;7771;48.478;8.936;2022-09-03T02:01:45;4.78;;;3.37;;
15342;SDS011;7771;48.478;8.936;2022-09-03T02:04:18;3.12;;;2.72;;
15342;SDS011;7771;48.478;8.936;2022-09-03T02:06:46;3.00;;;2.80;;
15342;SDS011;7771;48.478;8.936;2022-09-03T02:09:13;4.50;;;3.03;;
15342;SDS011;7771;48.478;8.936;2022-09-03T02:11:39;4.12;;;3.05;;
15342;SDS011;7771;48.478;8.936;2022-09-03T02:14:06;3.17;;;2.97;;
15342;SDS011;7771;48.478;8.936;2022-09-03T02:16:32;3.65;;;3.35;;
15342;SDS011;7771;48.478;8.936;2022-09-03T02:19:01;3.83;;;3.00;;
15342;SDS011;7771;48.478;8.936;2022-09-03T02:21:29;4.35;;;3.47;;
15342;SDS011;7771;48.478;8.936;2022-09-03T02:23:54;4.55;;;3.10;;
15342;SDS011;7771;48.478;8.936;2022-09-03T02:26:23;5.15;;;3.65;;
15342;SDS011;7771;48.478;8.936;2022-09-03T02:28:49;4.18;;;3.50;;
15342;SDS011;7771;48.478;8.936;2022-09-03T02:31:15;5.55;;;3.58;;
15342;SDS011;7771;48.478;8.936;2022-09-03T02:33:43;3.28;;;3.05;;
15342;SDS011;7771;48.478;8.936;2022-09-03T02:36:09;4.62;;;3.58;;
15342;SDS011;7771;48.478;8.936;2022-09-03T02:38:35;4.03;;;3.62;;
15342;SDS011;7771;48.478;8.936;2022-09-03T02:41:02;4.75;;;3.65;;
15342;SDS011;7771;48.478;8.936;2022-09-03T02:43:31;4.85;;;3.47;;
15342;SDS011;7771;48.478;8.936;2022-09-03T02:45:58;4.53;;;3.45;;
15342;SDS011;7771;48.478;8.936;2022-09-03T02:48:25;5.87;;;3.70;;
15342;SDS011;7771;48.478;8.936;2022-09-03T02:50:52;5.00;;;3.53;;
15342;SDS011;7771;48.478;8.936;2022-09-03T02:53:19;4.43;;;3.43;;
15342;SDS011;7771;48.478;8.936;2022-09-03T02:55:46;3.80;;;3.47;;
15342;SDS011;7771;48.478;8.936;2022-09-03T02:58:12;4.67;;;3.50;;
15342;SDS011;7771;48.478;8.936;2022-09-03T03:00:39;3.90;;;3.53;;
15342;SDS011;7771;48.478;8.936;2022-09-03T03:03:06;4.60;;;3.70;;
15342;SDS011;7771;48.478;8.936;2022-09-03T03:05:41;3.97;;;3.67;;
15342;SDS011;7771;48.478;8.936;2022-09-03T03:08:07;3.90;;;3.50;;
15342;SDS011;7771;48.478;8.936;2022-09-03T03:10:34;5.23;;;3.83;;
15342;SDS011;7771;48.478;8.936;2022-09-03T03:13:01;8.23;;;3.73;;
15342;SDS011;7771;48.478;8.936;2022-09-03T03:15:28;9.70;;;4.63;;
15342;SDS011;7771;48.478;8.936;2022-09-03T03:17:55;6.83;;;4.80;;
15342;SDS011;7771;48.478;8.936;2022-09-03T03:20:23;7.07;;;4.13;;
15342;SDS011;7771;48.478;8.936;2022-09-03T03:22:50;3.80;;;3.50;;
15342;SDS011;7771;48.478;8.936;2022-09-03T03:25:17;3.80;;;3.50;;
15342;SDS011;7771;48.478;8.936;2022-09-03T03:27:44;3.57;;;3.27;;
15342;SDS011;7771;48.478;8.936;2022-09-03T03:30:12;4.63;;;3.43;;
15342;SDS011;7771;48.478;8.936;2022-09-03T03:32:39;4.87;;;3.33;;
15342;SDS011;7771;48.478;8.936;2022-09-03T03:35:06;3.70;;;3.30;;
15342;SDS011;7771;48.478;8.936;2022-09-03T03:37:33;3.53;;;2.93;;
15342;SDS011;7771;48.478;8.936;2022-09-03T03:40:00;2.70;;;2.50;;
15342;SDS011;7771;48.478;8.936;2022-09-03T03:42:26;3.50;;;3.20;;
15342;SDS011;7771;48.478;8.936;2022-09-03T03:44:53;4.03;;;3.00;;
15342;SDS011;7771;48.478;8.936;2022-09-03T03:47:20;3.27;;;2.97;;
15342;SDS011;7771;48.478;8.936;2022-09-03T03:49:46;3.27;;;3.03;;
15342;SDS011;7771;48.478;8.936;2022-09-03T03:52:13;3.73;;;3.27;;
15342;SDS011;7771;48.478;8.936;2022-09-03T03:54:39;2.93;;;2.73;;
15342;SDS011;7771;48.478;8.936;2022-09-03T03:57:06;3.53;;;3.22;;
15342;SDS011;7771;48.478;8.936;2022-09-03T03:59:33;4.87;;;3.40;;
15342;SDS011;7771;48.478;8.936;2022-09-03T04:02:00;3.90;;;2.87;;
15342;SDS011;7771;48.478;8.936;2022-09-03T04:04:27;5.60;;;3.20;;
15342;SDS011;7771;48.478;8.936;2022-09-03T04:06:55;3.57;;;3.00;;
15342;SDS011;7771;48.478;8.936;2022-09-03T04:09:22;3.70;;;2.97;;
15342;SDS011;7771;48.478;8.936;2022-09-03T04:11:49;5.20;;;3.07;;
15342;SDS011;7771;48.478;8.936;2022-09-03T04:14:16;3.63;;;2.70;;
15342;SDS011;7771;48.478;8.936;2022-09-03T04:16:42;3.67;;;2.80;;
15342;SDS011;7771;48.478;8.936;2022-09-03T04:19:09;3.22;;;2.92;;
15342;SDS011;7771;48.478;8.936;2022-09-03T04:21:35;4.23;;;3.07;;
15342;SDS011;7771;48.478;8.936;2022-09-03T04:24:02;3.50;;;3.20;;
15342;SDS011;7771;48.478;8.936;2022-09-03T04:26:29;4.70;;;3.25;;
15342;SDS011;7771;48.478;8.936;2022-09-03T04:28:59;3.47;;;3.17;;
15342;SDS011;7771;48.478;8.936;2022-09-03T04:31:25;3.90;;;3.50;;
15342;SDS011;7771;48.478;8.936;2022-09-03T04:33:52;3.53;;;3.22;;
15342;SDS011;7771;48.478;8.936;2022-09-03T04:36:20;3.87;;;3.47;;
15342;SDS011;7771;48.478;8.936;2022-09-03T04:38:46;5.27;;;3.57;;
15342;SDS011;7771;48.478;8.936;2022-09-03T04:41:14;4.13;;;3.73;;
15342;SDS011;7771;48.478;8.936;2022-09-03T04:43:41;3.70;;;3.40;;
15342;SDS011;7771;48.478;8.936;2022-09-03T04:46:08;4.27;;;3.17;;
15342;SDS011;7771;48.478;8.936;2022-09-03T04:48:34;3.53;;;3.23;;
15342;SDS011;7771;48.478;8.936;2022-09-03T04:51:06;4.43;;;3.10;;
15342;SDS011;7771;48.478;8.936;2022-09-03T04:53:32;5.17;;;3.00;;
15342;SDS011;7771;48.478;8.936;2022-09-03T04:55:58;3.90;;;3.50;;
15342;SDS011;7771;48.478;8.936;2022-09-03T04:58:25;3.53;;;3.20;;
15342;SDS011;7771;48.478;8.936;2022-09-03T05:00:52;4.30;;;3.10;;
15342;SDS011;7771;48.478;8.936;2022-09-03T05:03:20;4.03;;;3.47;;
15342;SDS011;7771;48.478;8.936;2022-09-03T05:05:51;4.87;;;3.40;;
15342;SDS011;7771;48.478;8.936;2022-09-03T05:08:17;3.67;;;3.37;;
15342;SDS011;7771;48.478;8.936;2022-09-03T05:10:44;3.20;;;2.90;;
15342;SDS011;7771;48.478;8.936;2022-09-03T05:13:11;4.33;;;3.23;;
15342;SDS011;7771;48.478;8.936;2022-09-03T05:15:38;3.70;;;3.40;;
15342;SDS011;7771;48.478;8.936;2022-09-03T05:18:06;3.27;;;2.97;;
15342;SDS011;7771;48.478;8.936;2022-09-03T05:20:33;5.10;;;3.23;;
15342;SDS011;7771;48.478;8.936;2022-09-03T05:23:00;5.75;;;3.55;;
15342;SDS011;7771;48.478;8.936;2022-09-03T05:25:28;3.30;;;3.00;;
15342;SDS011;7771;48.478;8.936;2022-09-03T05:27:54;3.50;;;3.20;;
15342;SDS011;7771;48.478;8.936;2022-09-03T05:30:21;2.90;;;2.70;;
15342;SDS011;7771;48.478;8.936;2022-09-03T05:32:48;4.93;;;3.17;;
15342;SDS011;7771;48.478;8.936;2022-09-03T05:35:15;3.85;;;3.42;;
15342;SDS011;7771;48.478;8.936;2022-09-03T05:37:42;3.78;;;3.37;;
15342;SDS011;7771;48.478;8.936;2022-09-03T05:40:09;4.57;;;3.27;;
15342;SDS011;7771;48.478;8.936;2022-09-03T05:42:37;3.50;;;3.20;;
15342;SDS011;7771;48.478;8.936;2022-09-03T05:45:07;3.40;;;3.10;;
15342;SDS011;7771;48.478;8.936;2022-09-03T05:47:34;3.47;;;3.17;;
15342;SDS011;7771;48.478;8.936;2022-09-03T05:50:01;3.47;;;3.17;;
15342;SDS011;7771;48.478;8.936;2022-09-03T05:52:28;5.07;;;4.40;;
15342;SDS011;7771;48.478;8.936;2022-09-03T05:54:56;4.83;;;3.90;;
15342;SDS011;7771;48.478;8.936;2022-09-03T05:57:23;4.00;;;3.70;;
15342;SDS011;7771;48.478;8.936;2022-09-03T05:59:49;3.60;;;3.05;;
15342;SDS011;7771;48.478;8.936;2022-09-03T06:02:16;4.30;;;3.90;;
15342;SDS011;7771;48.478;8.936;2022-09-03T06:04:44;3.45;;;3.15;;
15342;SDS011;7771;48.478;8.936;2022-09-03T06:07:11;5.35;;;3.62;;
15342;SDS011;7771;48.478;8.936;2022-09-03T06:09:38;4.23;;;3.40;;
15342;SDS011;7771;48.478;8.936;2022-09-03T06:12:05;3.80;;;3.50;;
15342;SDS011;7771;48.478;8.936;2022-09-03T06:14:32;4.23;;;3.47;;
15342;SDS011;7771;48.478;8.936;2022-09-03T06:16:59;4.47;;;3.55;;
15342;SDS011;7771;48.478;8.936;2022-09-03T06:19:25;4.75;;;3.80;;
15342;SDS011;7771;48.478;8.936;2022-09-03T06:21:52;6.60;;;4.22;;
15342;SDS011;7771;48.478;8.936;2022-09-03T06:24:19;4.90;;;4.50;;
15342;SDS011;7771;48.478;8.936;2022-09-03T06:26:45;6.72;;;4.32;;
15342;SDS011;7771;48.478;8.936;2022-09-03T06:29:12;4.72;;;4.22;;
15342;SDS011;7771;48.478;8.936;2022-09-03T06:31:39;6.80;;;3.90;;
15342;SDS011;7771;48.478;8.936;2022-09-03T06:34:07;4.07;;;3.65;;
15342;SDS011;7771;48.478;8.936;2022-09-03T06:36:34;5.47;;;3.97;;
15342;SDS011;7771;48.478;8.936;2022-09-03T06:39:01;4.53;;;4.12;;
15342;SDS011;7771;48.478;8.936;2022-09-03T06:41:29;3.85;;;3.55;;
15342;SDS011;7771;48.478;8.936;2022-09-03T06:43:56;4.40;;;3.75;;
15342;SDS011;7771;48.478;8.936;2022-09-03T06:46:22;3.87;;;3.58;;
15342;SDS011;7771;48.478;8.936;2022-09-03T06:48:48;9.88;;;5.00;;
15342;SDS011;7771;48.478;8.936;2022-09-03T06:51:15;4.28;;;3.87;;
15342;SDS011;7771;48.478;8.936;2022-09-03T06:53:41;4.68;;;3.87;;
15342;SDS011;7771;48.478;8.936;2022-09-03T06:56:09;5.53;;;4.32;;
15342;SDS011;7771;48.478;8.936;2022-09-03T06:58:37;4.18;;;3.80;;
15342;SDS011;7771;48.478;8.936;2022-09-03T07:01:04;4.65;;;3.72;;
15342;SDS011;7771;48.478;8.936;2022-09-03T07:03:33;5.18;;;3.42;;
15342;SDS011;7771;48.478;8.936;2022-09-03T07:05:59;7.60;;;4.35;;
15342;SDS011;7771;48.478;8.936;2022-09-03T07:08:26;4.40;;;3.53;;
15342;SDS011;7771;48.478;8.936;2022-09-03T07:10:52;5.35;;;4.07;;
15342;SDS011;7771;48.478;8.936;2022-09-03T07:13:19;5.03;;;3.45;;
15342;SDS011;7771;48.478;8.936;2022-09-03T07:15:46;5.05;;;4.20;;
15342;SDS011;7771;48.478;8.936;2022-09-03T07:18:13;6.25;;;3.85;;
15342;SDS011;7771;48.478;8.936;2022-09-03T07:20:40;4.72;;;4.20;;
15342;SDS011;7771;48.478;8.936;2022-09-03T07:23:06;7.55;;;4.37;;
15342;SDS011;7771;48.478;8.936;2022-09-03T07:25:33;4.93;;;3.87;;
15342;SDS011;7771;48.478;8.936;2022-09-03T07:28:00;4.80;;;4.20;;
15342;SDS011;7771;48.478;8.936;2022-09-03T07:30:27;4.47;;;3.75;;
15342;SDS011;7771;48.478;8.936;2022-09-03T07:32:53;5.47;;;3.95;;
15342;SDS011;7771;48.478;8.936;2022-09-03T07:35:20;5.32;;;3.50;;
15342;SDS011;7771;48.478;8.936;2022-09-03T07:37:47;3.97;;;3.33;;
15342;SDS011;7771;48.478;8.936;2022-09-03T07:40:13;4.20;;;3.08;;
15342;SDS011;7771;48.478;8.936;2022-09-03T07:42:41;3.33;;;2.97;;
15342;SDS011;7771;48.478;8.936;2022-09-03T07:45:08;3.05;;;2.83;;
15342;SDS011;7771;48.478;8.936;2022-09-03T07:47:36;3.20;;;2.92;;
15342;SDS011;7771;48.478;8.936;2022-09-03T07:50:03;3.35;;;3.05;;
15342;SDS011;7771;48.478;8.936;2022-09-03T07:52:30;5.78;;;4.15;;
15342;SDS011;7771;48.478;8.936;2022-09-03T07:54:57;3.03;;;2.70;;
15342;SDS011;7771;48.478;8.936;2022-09-03T07:57:24;3.47;;;2.92;;
15342;SDS011;7771;48.478;8.936;2022-09-03T07:59:52;3.03;;;2.80;;
15342;SDS011;7771;48.478;8.936;2022-09-03T08:02:19;3.05;;;2.85;;
15342;SDS011;7771;48.478;8.936;2022-09-03T08:04:47;4.68;;;2.95;;
15342;SDS011;7771;48.478;8.936;2022-09-03T08:07:14;3.83;;;3.20;;
15342;SDS011;7771;48.478;8.936;2022-09-03T08:09:40;4.28;;;3.35;;
15342;SDS011;7771;48.478;8.936;2022-09-03T08:12:07;3.30;;;3.00;;
15342;SDS011;7771;48.478;8.936;2022-09-03T08:14:34;3.28;;;2.97;;
15342;SDS011;7771;48.478;8.936;2022-09-03T08:17:00;3.42;;;3.12;;
15342;SDS011;7771;48.478;8.936;2022-09-03T08:19:27;3.50;;;3.20;;
15342;SDS011;7771;48.478;8.936;2022-09-03T08:21:53;3.22;;;2.92;;
15342;SDS011;7771;48.478;8.936;2022-09-03T08:24:20;4.53;;;2.97;;
15342;SDS011;7771;48.478;8.936;2022-09-03T08:26:47;4.62;;;3.30;;
15342;SDS011;7771;48.478;8.936;2022-09-03T08:29:15;4.10;;;2.97;;
15342;SDS011;7771;48.478;8.936;2022-09-03T08:31:42;5.62;;;3.12;;
15342;SDS011;7771;48.478;8.936;2022-09-03T08:34:09;3.20;;;2.90;;
15342;SDS011;7771;48.478;8.936;2022-09-03T08:36:36;3.85;;;2.80;;
15342;SDS011;7771;48.478;8.936;2022-09-03T08:39:03;3.40;;;2.65;;
15342;SDS011;7771;48.478;8.936;2022-09-03T08:41:34;3.03;;;2.72;;
15342;SDS011;7771;48.478;8.936;2022-09-03T08:44:18;4.90;;;2.83;;
15342;SDS011;7771;48.478;8.936;2022-09-03T08:46:47;4.43;;;2.58;;
15342;SDS011;7771;48.478;8.936;2022-09-03T08:49:13;3.10;;;2.83;;
15342;SDS011;7771;48.478;8.936;2022-09-03T08:51:39;2.78;;;2.58;;
15342;SDS011;7771;48.478;8.936;2022-09-03T08:54:06;3.58;;;2.87;;
15342;SDS011;7771;48.478;8.936;2022-09-03T08:56:32;4.15;;;2.60;;
15342;SDS011;7771;48.478;8.936;2022-09-03T08:58:59;2.90;;;2.58;;
15342;SDS011;7771;48.478;8.936;2022-09-03T09:02:39;2.70;;;2.33;;
15342;SDS011;7771;48.478;8.936;2022-09-03T09:04:19;3.83;;;2.58;;
15342;SDS011;7771;48.478;8.936;2022-09-03T09:06:46;4.45;;;2.50;;
15342;SDS011;7771;48.478;8.936;2022-09-03T09:11:57;2.35;;;1.90;;
15342;SDS011;7771;48.478;8.936;2022-09-03T09:15:31;2.85;;;2.60;;
15342;SDS011;7771;48.478;8.936;2022-09-03T09:17:24;2.62;;;2.42;;
15342;SDS011;7771;48.478;8.936;2022-09-03T09:22:48;2.35;;;2.15;;
15342;SDS011;7771;48.478;8.936;2022-09-03T09:25:15;2.33;;;2.12;;
15342;SDS011;7771;48.478;8.936;2022-09-03T09:27:45;2.75;;;2.20;;
15342;SDS011;7771;48.478;8.936;2022-09-03T09:30:22;2.53;;;2.33;;
15342;SDS011;7771;48.478;8.936;2022-09-03T09:32:48;2.28;;;2.08;;
15342;SDS011;7771;48.478;8.936;2022-09-03T09:35:15;2.42;;;2.22;;
15342;SDS011;7771;48.478;8.936;2022-09-03T09:37:46;2.40;;;2.20;;
15342;SDS011;7771;48.478;8.936;2022-09-03T09:40:20;2.15;;;1.95;;
15342;SDS011;7771;48.478;8.936;2022-09-03T09:42:39;2.35;;;2.20;;
15342;SDS011;7771;48.478;8.936;2022-09-03T09:45:08;2.22;;;2.03;;
15342;SDS011;7771;48.478;8.936;2022-09-03T09:47:37;2.70;;;2.30;;
15342;SDS011;7771;48.478;8.936;2022-09-03T09:50:02;2.42;;;2.22;;
15342;SDS011;7771;48.478;8.936;2022-09-03T09:52:29;3.05;;;2.30;;
15342;SDS011;7771;48.478;8.936;2022-09-03T09:57:46;3.22;;;2.50;;
15342;SDS011;7771;48.478;8.936;2022-09-03T10:00:14;2.45;;;2.25;;
15342;SDS011;7771;48.478;8.936;2022-09-03T10:02:46;3.75;;;2.42;;
15342;SDS011;7771;48.478;8.936;2022-09-03T10:05:13;2.62;;;2.40;;
15342;SDS011;7771;48.478;8.936;2022-09-03T10:07:39;3.17;;;2.80;;
15342;SDS011;7771;48.478;8.936;2022-09-03T10:10:09;2.58;;;2.30;;
15342;SDS011;7771;48.478;8.936;2022-09-03T10:12:39;2.60;;;2.40;;
15342;SDS011;7771;48.478;8.936;2022-09-03T10:15:08;2.50;;;2.30;;
15342;SDS011;7771;48.478;8.936;2022-09-03T10:20:45;2.50;;;2.30;;
15342;SDS011;7771;48.478;8.936;2022-09-03T10:23:12;3.05;;;2.10;;
15342;SDS011;7771;48.478;8.936;2022-09-03T10:25:39;3.60;;;2.85;;
15342;SDS011;7771;48.478;8.936;2022-09-03T10:28:05;4.35;;;2.78;;
15342;SDS011;7771;48.478;8.936;2022-09-03T10:30:32;3.15;;;2.95;;
15342;SDS011;7771;48.478;8.936;2022-09-03T10:33:03;4.78;;;2.50;;
15342;SDS011;7771;48.478;8.936;2022-09-03T10:35:43;3.80;;;2.60;;
15342;SDS011;7771;48.478;8.936;2022-09-03T10:38:31;2.50;;;2.30;;
15342;SDS011;7771;48.478;8.936;2022-09-03T10:41:00;3.03;;;2.50;;
15342;SDS011;7771;48.478;8.936;2022-09-03T10:43:47;3.37;;;3.08;;
15342;SDS011;7771;48.478;8.936;2022-09-03T10:46:14;3.45;;;2.67;;
15342;SDS011;7771;48.478;8.936;2022-09-03T10:48:46;2.62;;;2.42;;
15342;SDS011;7771;48.478;8.936;2022-09-03T10:51:15;3.97;;;2.97;;
15342;SDS011;7771;48.478;8.936;2022-09-03T10:53:54;5.18;;;3.10;;
15342;SDS011;7771;48.478;8.936;2022-09-03T10:56:29;2.75;;;2.55;;
15342;SDS011;7771;48.478;8.936;2022-09-03T10:59:02;3.30;;;2.95;;
15342;SDS011;7771;48.478;8.936;2022-09-03T11:01:34;2.80;;;2.60;;
15342;SDS011;7771;48.478;8.936;2022-09-03T11:04:18;4.82;;;2.97;;
15342;SDS011;7771;48.478;8.936;2022-09-03T11:06:53;3.92;;;3.03;;
15342;SDS011;7771;48.478;8.936;2022-09-03T11:09:21;2.80;;;2.55;;
15342;SDS011;7771;48.478;8.936;2022-09-03T11:11:51;3.08;;;2.62;;
15342;SDS011;7771;48.478;8.936;2022-09-03T11:14:37;3.42;;;3.12;;
15342;SDS011;7771;48.478;8.936;2022-09-03T11:17:08;4.10;;;3.30;;
15342;SDS011;7771;48.478;8.936;2022-09-03T11:19:33;5.07;;;3.50;;
15342;SDS011;7771;48.478;8.936;2022-09-03T11:21:58;3.58;;;2.70;;
15342;SDS011;7771;48.478;8.936;2022-09-03T11:24:25;3.83;;;2.97;;
15342;SDS011;7771;48.478;8.936;2022-09-03T11:26:54;3.60;;;3.20;;
15342;SDS011;7771;48.478;8.936;2022-09-03T11:29:22;3.62;;;3.10;;
15342;SDS011;7771;48.478;8.936;2022-09-03T11:31:55;3.12;;;2.65;;
15342;SDS011;7771;48.478;8.936;2022-09-03T11:37:20;1.60;;;1.48;;
15342;SDS011;7771;48.478;8.936;2022-09-03T11:39:53;1.98;;;1.60;;
15342;SDS011;7771;48.478;8.936;2022-09-03T11:42:24;1.40;;;1.30;;
15342;SDS011;7771;48.478;8.936;2022-09-03T11:45:11;1.98;;;1.27;;
15342;SDS011;7771;48.478;8.936;2022-09-03T11:47:36;3.47;;;1.33;;
15342;SDS011;7771;48.478;8.936;2022-09-03T11:50:22;3.92;;;1.42;;
15342;SDS011;7771;48.478;8.936;2022-09-03T11:52:48;1.40;;;1.30;;
15342;SDS011;7771;48.478;8.936;2022-09-03T11:57:49;2.33;;;1.30;;
15342;SDS011;7771;48.478;8.936;2022-09-03T12:00:16;1.40;;;1.10;;
15342;SDS011;7771;48.478;8.936;2022-09-03T12:02:44;2.40;;;1.15;;
15342;SDS011;7771;48.478;8.936;2022-09-03T12:05:13;2.03;;;1.30;;
15342;SDS011;7771;48.478;8.936;2022-09-03T12:11:01;3.33;;;1.58;;
15342;SDS011;7771;48.478;8.936;2022-09-03T12:19:00;1.65;;;1.27;;
15342;SDS011;7771;48.478;8.936;2022-09-03T12:21:26;1.70;;;1.20;;
15342;SDS011;7771;48.478;8.936;2022-09-03T12:23:53;2.33;;;1.12;;
15342;SDS011;7771;48.478;8.936;2022-09-03T12:26:22;3.28;;;1.23;;
15342;SDS011;7771;48.478;8.936;2022-09-03T12:28:48;4.25;;;1.55;;
15342;SDS011;7771;48.478;8.936;2022-09-03T12:31:19;4.12;;;2.15;;
15342;SDS011;7771;48.478;8.936;2022-09-03T12:33:47;3.05;;;1.90;;
15342;SDS011;7771;48.478;8.936;2022-09-03T12:36:16;2.00;;;1.77;;
15342;SDS011;7771;48.478;8.936;2022-09-03T12:38:43;2.85;;;1.42;;
15342;SDS011;7771;48.478;8.936;2022-09-03T12:43:50;3.20;;;1.08;;
15342;SDS011;7771;48.478;8.936;2022-09-03T12:46:16;1.67;;;1.25;;
15342;SDS011;7771;48.478;8.936;2022-09-03T12:48:51;3.20;;;1.30;;
15342;SDS011;7771;48.478;8.936;2022-09-03T12:51:30;1.50;;;1.37;;
15342;SDS011;7771;48.478;8.936;2022-09-03T12:53:56;2.75;;;1.40;;
15342;SDS011;7771;48.478;8.936;2022-09-03T12:56:23;2.78;;;1.50;;
15342;SDS011;7771;48.478;8.936;2022-09-03T12:58:53;1.20;;;1.02;;
15342;SDS011;7771;48.478;8.936;2022-09-03T13:01:20;2.03;;;1.40;;
15342;SDS011;7771;48.478;8.936;2022-09-03T13:03:47;4.95;;;1.40;;
15342;SDS011;7771;48.478;8.936;2022-09-03T13:06:14;4.10;;;1.50;;
15342;SDS011;7771;48.478;8.936;2022-09-03T13:08:46;1.90;;;1.33;;
15342;SDS011;7771;48.478;8.936;2022-09-03T13:11:14;1.95;;;1.30;;
15342;SDS011;7771;48.478;8.936;2022-09-03T13:13:47;3.10;;;1.30;;
15342;SDS011;7771;48.478;8.936;2022-09-03T13:18:58;2.22;;;1.23;;
15342;SDS011;7771;48.478;8.936;2022-09-03T13:21:29;2.40;;;1.30;;
15342;SDS011;7771;48.478;8.936;2022-09-03T13:26:47;1.25;;;1.15;;
15342;SDS011;7771;48.478;8.936;2022-09-03T13:29:24;1.80;;;1.15;;
15342;SDS011;7771;48.478;8.936;2022-09-03T13:32:11;3.40;;;1.40;;
15342;SDS011;7771;48.478;8.936;2022-09-03T13:34:48;1.98;;;1.08;;
15342;SDS011;7771;48.478;8.936;2022-09-03T13:37:21;2.83;;;1.65;;
15342;SDS011;7771;48.478;8.936;2022-09-03T13:39:56;1.85;;;1.27;;
15342;SDS011;7771;48.478;8.936;2022-09-03T13:42:30;2.58;;;1.50;;
15342;SDS011;7771;48.478;8.936;2022-09-03T13:47:47;1.73;;;1.23;;
15342;SDS011;7771;48.478;8.936;2022-09-03T13:50:20;1.40;;;1.05;;
15342;SDS011;7771;48.478;8.936;2022-09-03T13:52:53;1.17;;;1.00;;
15342;SDS011;7771;48.478;8.936;2022-09-03T13:55:22;2.90;;;1.15;;
15342;SDS011;7771;48.478;8.936;2022-09-03T13:57:48;2.25;;;1.15;;
15342;SDS011;7771;48.478;8.936;2022-09-03T14:00:22;2.33;;;1.15;;
15342;SDS011;7771;48.478;8.936;2022-09-03T14:02:53;1.35;;;1.00;;
15342;SDS011;7771;48.478;8.936;2022-09-03T14:05:59;1.58;;;1.10;;
15342;SDS011;7771;48.478;8.936;2022-09-03T14:08:22;1.58;;;1.12;;
15342;SDS011;7771;48.478;8.936;2022-09-03T14:11:07;1.90;;;0.95;;
15342;SDS011;7771;48.478;8.936;2022-09-03T14:16:07;1.52;;;1.30;;
15342;SDS011;7771;48.478;8.936;2022-09-03T14:18:42;1.37;;;1.20;;
15342;SDS011;7771;48.478;8.936;2022-09-03T14:21:07;2.92;;;1.10;;
15342;SDS011;7771;48.478;8.936;2022-09-03T14:23:43;2.90;;;1.55;;
15342;SDS011;7771;48.478;8.936;2022-09-03T14:26:06;2.80;;;1.50;;
15342;SDS011;7771;48.478;8.936;2022-09-03T14:28:34;3.00;;;1.75;;
15342;SDS011;7771;48.478;8.936;2022-09-03T14:31:11;1.52;;;1.33;;
15342;SDS011;7771;48.478;8.936;2022-09-03T14:33:38;1.62;;;1.20;;
15342;SDS011;7771;48.478;8.936;2022-09-03T14:36:09;1.40;;;1.10;;
15342;SDS011;7771;48.478;8.936;2022-09-03T14:41:27;6.10;;;1.20;;
15342;SDS011;7771;48.478;8.936;2022-09-03T14:44:08;1.62;;;0.80;;
15342;SDS011;7771;48.478;8.936;2022-09-03T14:46:42;1.10;;;1.00;;
15342;SDS011;7771;48.478;8.936;2022-09-03T14:49:09;1.12;;;1.00;;
15342;SDS011;7771;48.478;8.936;2022-09-03T14:51:44;1.20;;;1.00;;
15342;SDS011;7771;48.478;8.936;2022-09-03T14:54:29;1.62;;;1.30;;
15342;SDS011;7771;48.478;8.936;2022-09-03T14:57:05;2.62;;;1.35;;
15342;SDS011;7771;48.478;8.936;2022-09-03T15:02:29;2.20;;;1.37;;
15342;SDS011;7771;48.478;8.936;2022-09-03T15:04:59;2.67;;;1.83;;
15342;SDS011;7771;48.478;8.936;2022-09-03T15:07:27;1.42;;;1.27;;
15342;SDS011;7771;48.478;8.936;2022-09-03T15:10:31;1.25;;;1.15;;
15342;SDS011;7771;48.478;8.936;2022-09-03T15:12:42;1.42;;;1.12;;
15342;SDS011;7771;48.478;8.936;2022-09-03T15:15:17;1.48;;;1.23;;
15342;SDS011;7771;48.478;8.936;2022-09-03T15:18:24;1.35;;;1.02;;
15342;SDS011;7771;48.478;8.936;2022-09-03T15:20:50;2.33;;;1.20;;
15342;SDS011;7771;48.478;8.936;2022-09-03T15:28:47;1.85;;;1.40;;
15342;SDS011;7771;48.478;8.936;2022-09-03T15:31:21;1.60;;;1.50;;
15342;SDS011;7771;48.478;8.936;2022-09-03T15:33:53;2.37;;;1.75;;
15342;SDS011;7771;48.478;8.936;2022-09-03T15:36:25;1.42;;;1.33;;
15342;SDS011;7771;48.478;8.936;2022-09-03T15:38:56;1.40;;;1.30;;
15342;SDS011;7771;48.478;8.936;2022-09-03T15:41:28;2.53;;;1.23;;
15342;SDS011;7771;48.478;8.936;2022-09-03T15:43:52;1.23;;;1.12;;
15342;SDS011;7771;48.478;8.936;2022-09-03T15:48:55;1.33;;;1.12;;
15342;SDS011;7771;48.478;8.936;2022-09-03T15:51:25;2.28;;;2.08;;
15342;SDS011;7771;48.478;8.936;2022-09-03T15:53:58;1.40;;;1.30;;
15342;SDS011;7771;48.478;8.936;2022-09-03T15:56:26;1.73;;;1.10;;
15342;SDS011;7771;48.478;8.936;2022-09-03T15:58:59;2.05;;;1.20;;
15342;SDS011;7771;48.478;8.936;2022-09-03T16:01:29;2.10;;;1.50;;
15342;SDS011;7771;48.478;8.936;2022-09-03T16:03:57;3.80;;;1.62;;
15342;SDS011;7771;48.478;8.936;2022-09-03T16:06:27;1.33;;;1.15;;
15342;SDS011;7771;48.478;8.936;2022-09-03T16:08:54;1.48;;;1.27;;
15342;SDS011;7771;48.478;8.936;2022-09-03T16:11:28;1.50;;;1.30;;
15342;SDS011;7771;48.478;8.936;2022-09-03T16:15:12;1.58;;;1.30;;
15342;SDS011;7771;48.478;8.936;2022-09-03T16:16:56;1.83;;;1.35;;
15342;SDS011;7771;48.478;8.936;2022-09-03T16:19:33;1.50;;;1.00;;
15342;SDS011;7771;48.478;8.936;2022-09-03T16:22:16;1.12;;;0.77;;
15342;SDS011;7771;48.478;8.936;2022-09-03T16:24:47;1.30;;;0.95;;